Time;durP1;ratioP1;P1;durP2;ratioP2;P2;SDS_P1;SDS_P2;PMS_P1;PMS_P2;Temp;Humidity;BMP_temperature;BMP_pressure;BME280_temperature;BME280_humidity;BME280_pressure;Samples;Min_cycle;Max_cycle;Signal;HPM_P1;HPM_P2
2022/08/23 00:02:06;;;;;;;;;3.00;1.00;;;;;22.08;62.23;101173.22;5091305;27;50209;-69
2022/08/23 00:04:35;;;;;;;;;1.50;1.50;;;;;22.23;62.29;101204.13;5091200;27;50454;-68
2022/08/23 00:07:02;;;;;;;;;1.00;1.00;;;;;22.37;62.46;101238.59;5091250;27;49699;-69
2022/08/23 00:09:28;;;;;;;;;2.50;2.50;;;;;22.35;62.71;101238.66;5094611;27;49814;-69
2022/08/23 00:12:10;;;;;;;;;1.50;1.50;;;;;22.00;62.72;101176.03;5091566;27;49578;-68
2022/08/23 00:14:38;;;;;;;;;1.75;1.75;;;;;22.29;62.85;101228.06;5091139;27;51496;-68
2022/08/23 00:17:05;;;;;;;;;0.00;0.00;;;;;22.18;62.64;101206.88;5091039;27;49691;-68
2022/08/23 00:19:31;;;;;;;;;1.50;0.50;;;;;22.34;63.08;101231.53;5091186;27;50157;-69
2022/08/23 00:21:57;;;;;;;;;0.75;0.75;;;;;22.17;63.18;101210.47;5091287;27;49619;-68
2022/08/23 00:24:24;;;;;;;;;1.50;1.50;;;;;22.16;63.71;101195.34;5090795;27;49798;-69
2022/08/23 00:27:11;;;;;;;;;1.00;1.00;;;;;22.30;63.95;101224.50;5091279;27;50186;-68
2022/08/23 00:29:49;;;;;;;;;1.25;1.25;;;;;22.26;63.81;101215.63;5091285;27;49687;-68
2022/08/23 00:32:20;;;;;;;;;1.75;1.00;;;;;22.32;64.03;101228.00;5091184;27;49982;-68
2022/08/23 00:34:45;;;;;;;;;0.75;0.75;;;;;22.24;64.02;101208.56;5090558;27;50516;-68
2022/08/23 00:37:12;;;;;;;;;2.00;1.00;;;;;22.14;64.13;101196.28;5090857;27;49778;-68
2022/08/23 00:39:38;;;;;;;;;0.50;0.50;;;;;22.29;64.17;101222.72;5091127;27;49691;-68
2022/08/23 00:47:44;;;;;;;;;1.50;1.50;;;;;22.02;64.26;101193.84;5054527;27;50190;-67
2022/08/23 00:50:31;;;;;;;;;1.50;1.50;;;;;22.22;64.53;101226.44;5091229;27;49770;-67
2022/08/23 00:53:19;;;;;;;;;0.25;0.25;;;;;22.20;64.61;101229.16;5091053;27;49846;-67
2022/08/23 00:55:48;;;;;;;;;1.50;1.50;;;;;22.04;64.56;101216.06;5073894;27;49883;-67
2022/08/23 00:58:17;;;;;;;;;1.00;1.00;;;;;22.12;64.68;101235.56;5090553;27;49692;-67
2022/08/23 01:00:44;;;;;;;;;0.75;0.75;;;;;22.11;64.94;101234.69;5090462;27;49824;-67
2022/08/23 01:03:12;;;;;;;;;0.50;0.50;;;;;22.11;64.80;101231.13;5090855;27;49788;-67
2022/08/23 01:05:55;;;;;;;;;1.00;1.00;;;;;22.06;64.93;101232.94;5090441;27;49744;-66
2022/08/23 01:08:24;;;;;;;;;4.75;3.00;;;;;21.91;65.11;101215.44;5090720;27;49792;-68
2022/08/23 01:10:56;;;;;;;;;1.00;1.00;;;;;21.69;64.89;101182.84;5090673;27;50426;-67
2022/08/23 01:13:28;;;;;;;;;2.00;1.00;;;;;21.96;65.22;101229.56;5090867;27;49991;-67
2022/08/23 01:16:08;;;;;;;;;2.00;2.00;;;;;21.73;65.48;101192.59;5093420;27;49810;-68
2022/08/23 01:18:35;;;;;;;;;1.50;1.25;;;;;21.82;65.37;101218.28;5093775;27;49934;-67
2022/08/23 01:21:06;;;;;;;;;0.25;0.25;;;;;21.94;65.79;101242.09;5094021;27;49712;-69
2022/08/23 01:23:46;;;;;;;;;1.50;1.50;;;;;22.03;65.17;101247.28;5091857;27;49819;-67
2022/08/23 01:26:15;;;;;;;;;3.75;2.75;;;;;21.75;65.17;101197.91;5093669;27;49885;-67
2022/08/23 01:28:41;;;;;;;;;5.50;3.75;;;;;22.05;65.24;101237.41;5093592;27;49607;-72
2022/08/23 01:31:07;;;;;;;;;3.25;3.25;;;;;21.98;65.39;101233.97;5093407;27;49881;-67
2022/08/23 01:33:35;;;;;;;;;4.25;4.25;;;;;21.95;65.58;101222.47;5093804;27;49786;-68
2022/08/23 01:36:02;;;;;;;;;3.50;3.50;;;;;22.09;65.54;101241.81;5093477;27;49728;-68
2022/08/23 01:38:27;;;;;;;;;5.75;4.25;;;;;22.10;65.47;101235.59;5093441;27;49782;-68
2022/08/23 01:40:53;;;;;;;;;2.75;2.75;;;;;21.84;65.41;101190.59;5093732;27;49938;-68
2022/08/23 01:43:20;;;;;;;;;2.75;1.75;;;;;22.11;65.49;101240.03;5093948;27;49923;-68
2022/08/23 01:45:47;;;;;;;;;1.25;1.25;;;;;22.14;65.30;101228.38;5093476;27;49969;-68
2022/08/23 01:48:14;;;;;;;;;0.75;0.75;;;;;22.14;65.49;101234.59;5093564;27;49994;-68
2022/08/23 01:50:40;;;;;;;;;0.50;0.50;;;;;22.13;65.38;101238.19;5093419;27;49620;-68
2022/08/23 01:53:06;;;;;;;;;2.00;2.00;;;;;22.15;65.41;101239.03;5093240;27;49932;-68
2022/08/23 01:55:33;;;;;;;;;2.00;2.00;;;;;22.02;64.92;101204.53;5093281;27;49825;-68
2022/08/23 01:58:01;;;;;;;;;1.00;1.00;;;;;22.16;65.00;101238.13;5093314;27;49722;-67
2022/08/23 02:00:31;;;;;;;;;2.00;1.00;;;;;22.15;65.11;101236.38;5093318;27;50032;-68
2022/08/23 02:02:58;;;;;;;;;0.50;0.50;;;;;22.06;64.92;101227.59;5093495;27;49814;-67
2022/08/23 02:05:24;;;;;;;;;2.25;0.50;;;;;22.08;64.74;101231.16;5093099;27;50714;-67
2022/08/23 02:07:50;;;;;;;;;2.00;1.00;;;;;22.09;64.86;101243.63;5092994;27;49647;-67
2022/08/23 02:10:15;;;;;;;;;1.50;1.50;;;;;22.05;64.72;101249.91;5093102;27;50039;-68
2022/08/23 02:12:41;;;;;;;;;2.00;2.00;;;;;21.99;64.91;101240.19;5093316;27;49902;-68
2022/08/23 02:15:07;;;;;;;;;1.50;1.00;;;;;21.99;65.32;101241.06;5092897;27;50362;-68
2022/08/23 02:17:32;;;;;;;;;1.00;1.00;;;;;21.97;65.43;101242.03;5093052;27;49846;-68
2022/08/23 02:19:58;;;;;;;;;1.25;1.25;;;;;21.73;65.41;101205.94;5093135;27;49715;-68
2022/08/23 02:22:24;;;;;;;;;0.50;0.50;;;;;21.95;65.81;101243.84;5091710;27;50210;-72
2022/08/23 02:24:49;;;;;;;;;1.50;1.50;;;;;21.95;66.08;101238.50;5090416;27;50381;-73
2022/08/23 02:27:16;;;;;;;;;2.00;2.00;;;;;21.94;65.83;101242.97;5092081;27;49729;-75
2022/08/23 02:29:43;;;;;;;;;1.25;1.25;;;;;21.91;65.86;101239.47;5091267;27;49641;-72
2022/08/23 02:32:11;;;;;;;;;1.75;1.00;;;;;21.97;65.96;101248.25;5086469;27;50200;-72
2022/08/23 02:34:36;;;;;;;;;1.00;0.75;;;;;21.95;65.94;101247.41;5086095;27;50681;-68
2022/08/23 02:37:02;;;;;;;;;1.00;1.00;;;;;21.81;66.10;101224.50;5092857;27;49879;-68
2022/08/23 02:39:27;;;;;;;;;2.00;0.50;;;;;21.96;65.86;101257.19;5092820;27;49860;-69
2022/08/23 02:41:53;;;;;;;;;1.00;1.00;;;;;21.96;66.09;101245.59;5092902;27;49877;-68
2022/08/23 02:44:19;;;;;;;;;2.00;2.00;;;;;21.95;66.41;101247.41;5092366;27;49773;-68
2022/08/23 02:46:45;;;;;;;;;1.75;1.75;;;;;21.95;66.35;101252.75;5092098;27;49752;-68
2022/08/23 02:49:11;;;;;;;;;1.00;1.00;;;;;21.97;66.10;101258.06;5092747;27;50124;-72
2022/08/23 02:51:38;;;;;;;;;0.00;0.00;;;;;21.56;66.24;101182.19;5092739;27;49763;-69
2022/08/23 02:54:04;;;;;;;;;1.75;1.75;;;;;21.96;66.32;101249.16;5092136;27;50496;-67
2022/08/23 02:56:30;;;;;;;;;0.50;0.50;;;;;22.02;66.04;101244.63;5092707;27;49958;-69
2022/08/23 02:58:56;;;;;;;;;0.50;0.50;;;;;22.02;66.34;101241.97;5095258;27;49781;-68
2022/08/23 03:01:28;;;;;;;;;0.25;0.25;;;;;21.67;66.34;101187.34;5073893;27;50094;-69
2022/08/23 03:03:55;;;;;;;;;1.00;1.00;;;;;22.03;66.14;101249.06;5092147;27;50729;-69
2022/08/23 03:06:21;;;;;;;;;1.25;1.25;;;;;22.01;66.09;101254.44;5091974;27;49748;-69
2022/08/23 03:08:46;;;;;;;;;1.00;1.00;;;;;21.85;66.05;101227.09;5092050;27;49631;-70
2022/08/23 03:11:15;;;;;;;;;0.75;0.75;;;;;21.95;66.29;101249.19;5092166;27;49765;-69
2022/08/23 03:13:42;;;;;;;;;1.25;1.25;;;;;22.00;66.37;101256.25;5092063;27;49815;-69
2022/08/23 03:16:08;;;;;;;;;1.50;0.75;;;;;21.83;66.31;101228.94;5091917;27;49792;-71
2022/08/23 03:18:37;;;;;;;;;2.00;1.00;;;;;21.79;66.33;101226.31;5092184;27;49902;-69
2022/08/23 03:21:04;;;;;;;;;2.00;0.50;;;;;21.91;66.72;101256.41;5092070;27;49656;-71
2022/08/23 03:23:31;;;;;;;;;2.75;1.00;;;;;21.76;66.49;101231.72;5091695;27;49623;-69
2022/08/23 03:25:57;;;;;;;;;1.00;1.00;;;;;21.86;66.85;101260.94;5091858;27;49724;-69
2022/08/23 03:28:24;;;;;;;;;0.50;0.50;;;;;21.81;66.83;101265.50;5091977;27;49701;-70
2022/08/23 03:30:49;;;;;;;;;2.25;1.00;;;;;21.68;66.94;101245.22;5091822;27;49884;-69
2022/08/23 03:33:15;;;;;;;;;2.00;2.00;;;;;21.66;66.95;101247.94;5091880;27;49819;-69
2022/08/23 03:35:41;;;;;;;;;1.00;1.00;;;;;21.68;67.11;101262.13;5073414;27;49893;-68
2022/08/23 03:38:06;;;;;;;;;1.00;1.00;;;;;21.53;67.30;101240.16;5091493;27;49784;-69
2022/08/23 03:40:32;;;;;;;;;2.00;2.00;;;;;21.64;67.53;101264.91;5091786;27;49857;-68
2022/08/23 03:42:57;;;;;;;;;1.00;1.00;;;;;21.45;67.48;101236.72;5091053;27;63394;-68
2022/08/23 03:45:22;;;;;;;;;1.00;1.00;;;;;21.54;67.51;101266.84;5091471;27;50077;-69
2022/08/23 03:47:48;;;;;;;;;1.25;1.25;;;;;21.42;67.61;101253.66;5091664;27;49688;-68
2022/08/23 03:50:13;;;;;;;;;1.75;1.75;;;;;21.37;68.00;101261.75;5091955;27;49922;-68
2022/08/23 03:52:38;;;;;;;;;1.00;1.00;;;;;21.55;67.96;101287.31;5091174;27;49743;-70
2022/08/23 03:55:04;;;;;;;;;1.00;1.00;;;;;21.40;68.13;101268.84;5091562;27;49636;-68
2022/08/23 03:57:30;;;;;;;;;1.00;1.00;;;;;21.50;68.07;101283.81;5091520;27;50068;-68
2022/08/23 03:59:58;;;;;;;;;1.25;1.25;;;;;21.37;68.14;101272.44;5091303;27;49906;-68
2022/08/23 04:02:24;;;;;;;;;1.50;0.75;;;;;21.49;68.00;101295.41;5091359;27;50360;-69
2022/08/23 04:04:49;;;;;;;;;1.25;1.25;;;;;21.43;68.05;101288.38;5091234;27;49731;-68
2022/08/23 04:07:19;;;;;;;;;2.50;1.50;;;;;21.43;67.79;101298.19;5091201;27;52262;-68
2022/08/23 04:09:45;;;;;;;;;1.00;1.00;;;;;21.23;68.00;101268.16;5091788;27;49791;-68
2022/08/23 04:12:11;;;;;;;;;1.75;1.75;;;;;21.32;67.76;101289.44;5091188;27;50515;-68
2022/08/23 04:14:36;;;;;;;;;1.00;1.00;;;;;21.25;68.24;101293.09;5091210;27;49899;-69
2022/08/23 04:17:01;;;;;;;;;1.25;1.25;;;;;21.30;68.15;101299.25;5091017;27;49710;-68
2022/08/23 04:19:26;;;;;;;;;1.00;1.00;;;;;21.15;68.59;101287.88;5071893;27;51483;-68
2022/08/23 04:21:52;;;;;;;;;1.50;1.50;;;;;20.96;68.91;101259.69;5090887;27;60943;-68
2022/08/23 04:24:18;;;;;;;;;1.00;1.00;;;;;21.06;68.98;101288.00;5091232;27;49651;-68
2022/08/23 04:26:44;;;;;;;;;2.00;2.00;;;;;20.81;69.00;101270.56;5091338;27;49712;-68
2022/08/23 04:29:13;;;;;;;;;0.50;0.50;;;;;21.17;69.13;101316.34;5091405;27;49757;-68
2022/08/23 04:31:38;;;;;;;;;3.50;1.75;;;;;21.15;69.00;101308.34;5090745;27;49918;-68
2022/08/23 04:34:04;;;;;;;;;1.75;1.75;;;;;20.78;68.88;101259.94;5090696;27;49698;-69
2022/08/23 04:36:38;;;;;;;;;1.25;1.00;;;;;21.06;69.51;101306.69;5091100;27;49791;-70
2022/08/23 04:39:04;;;;;;;;;1.00;1.00;;;;;21.03;69.09;101309.38;5091177;27;49949;-70
2022/08/23 04:44:14;;;;;;;;;1.50;1.50;;;;;20.73;69.63;101283.09;5090911;27;49744;-69
2022/08/23 04:46:42;;;;;;;;;2.00;2.00;;;;;21.01;69.69;101319.19;5090730;27;49951;-72
2022/08/23 04:49:08;;;;;;;;;1.50;1.50;;;;;20.68;69.69;101276.97;5092532;27;49703;-71
2022/08/23 04:51:33;;;;;;;;;2.75;2.75;;;;;20.80;69.60;101290.13;5094012;27;49792;-70
2022/08/23 04:53:59;;;;;;;;;1.50;1.50;;;;;20.92;70.08;101318.44;5094246;27;49685;-72
2022/08/23 04:56:31;;;;;;;;;2.00;2.00;;;;;20.94;69.66;101328.22;5092650;27;50119;-72
2022/08/23 04:58:56;;;;;;;;;3.00;3.00;;;;;20.69;69.64;101292.94;5094539;27;49791;-70
2022/08/23 05:01:24;;;;;;;;;2.00;2.00;;;;;20.90;70.11;101325.59;5093922;27;49629;-71
2022/08/23 05:03:50;;;;;;;;;4.00;2.50;;;;;20.79;70.17;101317.72;5094412;27;49934;-69
2022/08/23 05:06:15;;;;;;;;;1.25;1.25;;;;;20.87;70.05;101334.53;5094087;27;50126;-71
2022/08/23 05:08:40;;;;;;;;;2.75;2.75;;;;;20.89;70.55;101329.16;5096569;27;54266;-69
2022/08/23 05:11:07;;;;;;;;;3.00;3.00;;;;;20.74;70.41;101303.53;5097263;27;50517;-73
2022/08/23 05:13:33;;;;;;;;;3.25;3.25;;;;;20.58;70.24;101277.06;5094131;27;49985;-71
2022/08/23 05:15:59;;;;;;;;;3.00;1.75;;;;;20.91;70.26;101338.91;5093932;27;49700;-77
2022/08/23 05:18:25;;;;;;;;;2.50;2.50;;;;;20.92;70.17;101338.00;5094154;27;49843;-67
2022/08/23 05:20:51;;;;;;;;;6.25;4.50;;;;;20.91;70.37;101332.69;5093971;27;50675;-69
2022/08/23 05:23:17;;;;;;;;;4.25;4.00;;;;;20.91;70.51;101332.69;5099943;27;50017;-64
2022/08/23 05:25:48;;;;;;;;;6.50;3.25;;;;;20.92;70.48;101329.13;5093886;27;49797;-69
2022/08/23 05:28:34;;;;;;;;;2.75;2.75;;;;;20.94;70.31;101329.97;5093939;27;49687;-67
2022/08/23 05:31:05;;;;;;;;;3.00;3.00;;;;;20.96;70.68;101333.53;5091459;27;51599;-67
2022/08/23 05:33:32;;;;;;;;;3.50;2.00;;;;;20.97;70.49;101341.50;5091503;27;49773;-68
2022/08/23 05:35:58;;;;;;;;;2.00;2.00;;;;;20.99;70.39;101347.72;5096226;27;49751;-67
2022/08/23 05:38:25;;;;;;;;;3.00;3.00;;;;;21.01;70.29;101340.56;5093920;27;49997;-68
2022/08/23 05:40:51;;;;;;;;;2.50;2.50;;;;;21.04;70.31;101347.66;5093389;27;50392;-67
2022/08/23 05:43:19;;;;;;;;;2.50;2.50;;;;;21.05;70.55;101346.75;5093654;27;50194;-67
2022/08/23 05:45:45;;;;;;;;;3.00;3.00;;;;;21.06;70.59;101351.19;5093412;27;49924;-67
2022/08/23 05:48:11;;;;;;;;;6.25;4.25;;;;;21.08;70.74;101354.72;5096947;27;49672;-67
2022/08/23 05:50:38;;;;;;;;;2.00;2.00;;;;;21.02;70.52;101342.31;5093538;27;49724;-67
2022/08/23 05:53:06;;;;;;;;;3.75;3.75;;;;;21.11;70.18;101350.22;5090555;27;49726;-67
2022/08/23 05:55:31;;;;;;;;;1.00;1.00;;;;;21.11;70.21;101347.53;5093463;27;49825;-67
2022/08/23 05:57:56;;;;;;;;;3.00;3.00;;;;;21.02;70.29;101325.41;5093662;27;49900;-67
2022/08/23 06:00:22;;;;;;;;;3.00;3.00;;;;;21.11;70.24;101347.53;5092865;27;50397;-67
2022/08/23 06:02:48;;;;;;;;;3.75;2.50;;;;;21.11;70.45;101341.31;5093163;27;49639;-67
2022/08/23 06:05:14;;;;;;;;;4.00;4.00;;;;;21.23;69.94;101351.84;5093298;27;50303;-67
2022/08/23 06:07:40;;;;;;;;;4.00;2.75;;;;;21.28;70.06;101347.34;5093255;27;49977;-67
2022/08/23 06:10:06;;;;;;;;;6.00;3.75;;;;;21.27;69.79;101345.59;5093319;27;50466;-67
2022/08/23 06:12:32;;;;;;;;;2.50;2.50;;;;;21.38;70.20;101354.31;5093041;27;50037;-70
2022/08/23 06:14:58;;;;;;;;;2.75;2.75;;;;;21.28;69.90;101342.00;5093097;27;49774;-67
2022/08/23 06:17:23;;;;;;;;;2.75;2.75;;;;;21.34;70.09;101346.41;5093042;27;49864;-68
2022/08/23 06:19:49;;;;;;;;;3.25;3.25;;;;;21.53;69.92;101363.03;5092630;27;49767;-66
2022/08/23 06:22:14;;;;;;;;;3.25;2.00;;;;;21.31;69.17;101325.06;5092919;27;49863;-67
2022/08/23 06:24:39;;;;;;;;;2.50;2.50;;;;;21.59;69.12;101373.63;5092860;27;50220;-67
2022/08/23 06:27:06;;;;;;;;;2.50;2.50;;;;;21.64;68.81;101367.31;5092597;27;53122;-67
2022/08/23 06:29:31;;;;;;;;;2.25;2.25;;;;;21.78;68.46;101369.75;5090998;27;51734;-68
2022/08/23 06:31:57;;;;;;;;;2.00;2.00;;;;;21.69;68.05;101349.41;5092693;27;50345;-67
2022/08/23 06:34:26;;;;;;;;;3.25;3.25;;;;;21.90;67.92;101369.53;5073820;27;49986;-66
2022/08/23 06:36:54;;;;;;;;;2.25;2.25;;;;;21.92;67.58;101369.56;5092945;27;50051;-67
2022/08/23 06:39:23;;;;;;;;;2.75;2.75;;;;;22.04;67.54;101377.34;5092385;27;50720;-67
2022/08/23 06:41:49;;;;;;;;;2.25;2.25;;;;;21.97;67.34;101349.84;5092383;27;49674;-67
2022/08/23 06:44:16;;;;;;;;;2.00;2.00;;;;;22.16;66.98;101370.94;5092507;27;49909;-66
2022/08/23 06:46:41;;;;;;;;;1.75;1.75;;;;;22.27;66.96;101387.69;5090740;27;49941;-67
2022/08/23 06:49:07;;;;;;;;;2.00;2.00;;;;;22.36;66.57;101379.50;5092438;27;50491;-67
2022/08/23 06:51:39;;;;;;;;;2.50;2.50;;;;;22.38;66.03;101371.44;5092695;27;49623;-67
2022/08/23 06:54:09;;;;;;;;;5.00;3.75;;;;;22.36;65.51;101333.13;5092527;27;49903;-67
2022/08/23 06:56:36;;;;;;;;;2.75;2.75;;;;;22.79;65.05;101379.59;5092506;27;49858;-66
2022/08/23 06:59:05;;;;;;;;;3.00;2.75;;;;;22.91;64.50;101375.81;5091165;27;49852;-69
2022/08/23 07:01:36;;;;;;;;;2.75;2.75;;;;;23.04;64.45;101371.94;5092143;27;49810;-67
2022/08/23 07:04:05;;;;;;;;;4.25;4.25;;;;;23.08;63.98;101376.34;5091379;27;49827;-67
2022/08/23 07:06:30;;;;;;;;;4.00;2.50;;;;;23.13;63.78;101371.75;5074228;27;49958;-67
2022/08/23 07:08:57;;;;;;;;;2.25;2.25;;;;;23.19;63.78;101373.44;5092410;27;50232;-69
2022/08/23 07:11:24;;;;;;;;;4.50;4.50;;;;;23.30;63.72;101390.16;5091877;27;49681;-70
2022/08/23 07:13:51;;;;;;;;;2.75;2.75;;;;;23.36;63.43;101392.69;5073992;27;49882;-71
2022/08/23 07:16:18;;;;;;;;;3.50;2.00;;;;;23.41;63.37;101373.84;5092156;27;49716;-71
2022/08/23 07:18:45;;;;;;;;;2.00;2.00;;;;;23.62;62.72;101388.56;5083134;27;52241;-71
2022/08/23 07:21:11;;;;;;;;;5.25;2.50;;;;;23.80;62.40;101387.25;5073875;27;49890;-76
2022/08/23 07:23:38;;;;;;;;;4.75;3.75;;;;;24.00;62.33;101403.75;5073679;27;49730;-70
2022/08/23 07:26:09;;;;;;;;;2.00;2.00;;;;;23.95;62.05;101373.50;5091880;27;49797;-69
2022/08/23 07:28:35;;;;;;;;;3.25;3.25;;;;;23.97;61.34;101355.56;5088340;27;50746;-70
2022/08/23 07:31:17;;;;;;;;;0.75;0.75;;;;;24.39;61.04;101411.72;5077029;27;49883;-69
2022/08/23 07:33:44;;;;;;;;;5.75;2.25;;;;;24.47;61.21;101388.25;5071919;27;49871;-70
2022/08/23 07:36:16;;;;;;;;;2.75;2.75;;;;;24.33;61.17;101379.72;5091331;27;49944;-69
2022/08/23 07:38:45;;;;;;;;;1.50;1.50;;;;;24.64;61.14;101414.66;5091130;27;49763;-69
2022/08/23 07:41:11;;;;;;;;;3.50;3.50;;;;;24.74;60.78;101410.81;5072932;27;49682;-68
2022/08/23 07:43:38;;;;;;;;;1.25;1.25;;;;;24.84;60.68;101409.63;5091618;27;49695;-68
2022/08/23 07:46:04;;;;;;;;;1.50;1.50;;;;;24.88;60.86;101389.78;5072566;27;49972;-71
2022/08/23 07:48:30;;;;;;;;;2.00;2.00;;;;;24.99;60.03;101389.47;5091573;27;50522;-68
2022/08/23 07:51:02;;;;;;;;;2.50;2.50;;;;;25.08;60.06;101406.25;5091978;27;49638;-71
2022/08/23 07:53:28;;;;;;;;;2.75;1.75;;;;;25.18;59.96;101401.50;5091717;27;49663;-71
2022/08/23 07:55:56;;;;;;;;;2.00;1.00;;;;;25.32;59.63;101411.84;5092047;27;49970;-71
2022/08/23 07:58:23;;;;;;;;;1.75;1.75;;;;;25.32;59.29;101410.03;5091949;27;49761;-69
2022/08/23 08:00:50;;;;;;;;;1.75;1.75;;;;;25.13;60.08;101381.94;5090989;27;49745;-68
2022/08/23 08:03:16;;;;;;;;;2.50;2.50;;;;;24.91;60.06;101359.31;5090804;27;49832;-69
2022/08/23 08:05:41;;;;;;;;;3.00;2.75;;;;;25.29;59.76;101409.25;5090211;27;49991;-69
2022/08/23 08:08:13;;;;;;;;;1.50;1.50;;;;;25.38;59.84;101415.25;5087558;27;50419;-71
2022/08/23 08:10:40;;;;;;;;;3.00;3.00;;;;;25.28;59.93;101399.41;5090784;27;49917;-71
2022/08/23 08:13:07;;;;;;;;;5.75;4.00;;;;;24.96;59.76;101360.03;5088392;27;50049;-69
2022/08/23 08:15:34;;;;;;;;;2.75;1.75;;;;;24.86;60.05;101350.50;5089967;27;51200;-69
2022/08/23 08:18:00;;;;;;;;;2.50;2.50;;;;;25.19;59.54;101402.38;5089451;27;50370;-68
2022/08/23 08:20:27;;;;;;;;;2.75;2.75;;;;;25.24;60.20;101408.50;5090788;27;49696;-71
2022/08/23 08:22:53;;;;;;;;;4.00;3.00;;;;;25.22;60.45;101411.25;5090573;27;49868;-68
2022/08/23 08:25:18;;;;;;;;;4.25;3.50;;;;;24.76;61.11;101374.91;5092283;27;50049;-69
2022/08/23 08:27:43;;;;;;;;;2.75;2.75;;;;;24.80;61.71;101399.88;5090714;27;50746;-68
2022/08/23 08:30:11;;;;;;;;;3.50;3.50;;;;;25.02;61.52;101441.38;5092537;27;49912;-69
2022/08/23 08:32:37;;;;;;;;;5.50;4.00;;;;;24.92;61.00;101412.09;5093709;27;50043;-68
2022/08/23 08:35:05;;;;;;;;;3.75;3.75;;;;;24.91;61.15;101405.84;5094366;27;49754;-77
2022/08/23 08:37:31;;;;;;;;;2.00;2.00;;;;;24.81;60.90;101389.13;5093421;27;52291;-70
2022/08/23 08:39:58;;;;;;;;;3.50;3.50;;;;;24.99;60.81;101400.22;5092463;27;50002;-72
2022/08/23 08:42:41;;;;;;;;;2.25;2.25;;;;;25.28;60.58;101442.41;5093877;27;49894;-72
2022/08/23 08:45:31;;;;;;;;;3.00;3.00;;;;;25.51;59.77;101439.94;5094206;27;49169;-71
2022/08/23 08:48:05;;;;;;;;;2.00;2.00;;;;;25.59;59.10;101443.25;5093801;27;49798;-71
2022/08/23 08:50:40;;;;;;;;;3.00;3.00;;;;;25.64;59.25;101440.41;5094394;27;49850;-72
2022/08/23 08:53:08;;;;;;;;;1.25;1.25;;;;;25.64;59.26;101437.72;5094198;27;49914;-71
2022/08/23 08:56:03;;;;;;;;;2.75;2.00;;;;;25.30;59.52;101382.34;5094387;27;49871;-72
2022/08/23 08:58:28;;;;;;;;;2.00;2.00;;;;;25.73;58.49;101432.09;5090656;27;49798;-72
2022/08/23 09:00:53;;;;;;;;;2.75;2.75;;;;;25.73;59.01;101431.22;5075412;27;49769;-73
2022/08/23 09:03:21;;;;;;;;;3.75;2.00;;;;;25.92;58.60;101435.09;5094335;27;49919;-72
2022/08/23 09:06:27;;;;;;;;;3.50;3.00;;;;;25.88;58.48;101402.03;5094352;27;49876;-71
2022/08/23 09:08:52;;;;;;;;;1.75;1.75;;;;;26.33;57.75;101447.16;5074558;27;51312;-72
2022/08/23 09:11:44;;;;;;;;;0.25;0.25;;;;;26.56;57.15;101437.47;5093102;27;49840;-72
2022/08/23 09:14:18;;;;;;;;;2.00;2.00;;;;;26.59;56.53;101434.66;5080775;27;49806;-71
2022/08/23 09:16:52;;;;;;;;;2.50;2.50;;;;;26.83;56.20;101458.06;5100400;27;49906;-70
2022/08/23 09:19:20;;;;;;;;;5.25;3.50;;;;;26.85;55.71;101448.09;5093685;27;50764;-71
2022/08/23 09:22:00;;;;;;;;;1.75;1.75;;;;;26.79;55.22;101416.88;5092977;27;49895;-73
2022/08/23 09:24:27;;;;;;;;;2.25;2.25;;;;;27.07;55.01;101448.22;5093558;27;49869;-73
2022/08/23 09:26:52;;;;;;;;;2.75;2.75;;;;;27.07;55.21;101448.22;5093779;27;49791;-72
2022/08/23 09:29:33;;;;;;;;;1.00;1.00;;;;;26.97;54.48;101396.47;5093191;27;50531;-75
2022/08/23 09:32:01;;;;;;;;;2.50;2.50;;;;;26.86;54.11;101365.47;5093772;27;49676;-74
2022/08/23 09:34:35;;;;;;;;;3.00;2.00;;;;;27.52;53.66;101437.53;5093283;27;49636;-72
2022/08/23 09:37:18;;;;;;;;;1.00;1.00;;;;;27.65;53.60;101443.31;5093809;27;49761;-72
2022/08/23 09:39:51;;;;;;;;;2.25;2.25;;;;;27.42;53.21;101409.16;5093065;27;49728;-75
2022/08/23 09:42:32;;;;;;;;;2.25;2.25;;;;;27.22;53.13;101380.28;5093234;27;49814;-70
2022/08/23 09:44:58;;;;;;;;;1.00;1.00;;;;;27.34;53.53;101414.84;5092824;27;49789;-71
2022/08/23 09:47:39;;;;;;;;;5.75;4.25;;;;;26.87;53.65;101365.41;5093072;27;50338;-71
2022/08/23 09:50:23;;;;;;;;;3.25;2.75;;;;;27.24;54.35;101416.13;5097048;27;50527;-73
2022/08/23 09:52:49;;;;;;;;;3.75;3.75;;;;;27.25;53.63;101423.28;5088565;27;50112;-72
2022/08/23 09:55:40;;;;;;;;;4.75;4.75;;;;;26.97;54.13;101412.63;5093913;27;49812;-73
2022/08/23 09:58:39;;;;;;;;;2.75;2.75;;;;;26.43;54.27;101322.13;5096873;27;49865;-71
2022/08/23 10:01:21;;;;;;;;;2.75;1.50;;;;;27.10;54.23;101442.72;5087774;27;50516;-73
2022/08/23 10:04:04;;;;;;;;;4.00;2.00;;;;;26.59;54.26;101353.88;5093540;27;49941;-83
2022/08/23 10:06:33;;;;;;;;;2.50;2.00;;;;;26.63;53.74;101356.41;5093372;27;49851;-74
2022/08/23 10:09:04;;;;;;;;;2.00;2.00;;;;;27.01;53.96;101408.00;5093363;27;49853;-77
2022/08/23 10:11:40;;;;;;;;;3.00;3.00;;;;;26.65;53.84;101349.16;5093662;27;50060;-77
2022/08/23 10:14:05;;;;;;;;;2.75;1.50;;;;;26.07;53.52;101238.19;5093067;27;49606;-82
2022/08/23 10:17:00;;;;;;;;;3.00;2.00;;;;;27.17;53.63;101421.81;5092801;27;49692;-74
2022/08/23 10:19:51;;;;;;;;;2.50;2.50;;;;;27.31;53.58;101414.06;5085154;27;50006;-76
2022/08/23 10:22:22;;;;;;;;;2.25;1.75;;;;;27.42;53.43;101417.25;5092988;27;51109;-76
2022/08/23 10:24:59;;;;;;;;;5.00;1.50;;;;;27.42;53.29;101419.94;5074592;27;49753;-70
2022/08/23 10:30:35;;;;;;;;;2.25;2.25;;;;;26.79;53.66;101327.97;5092852;27;49971;-70
2022/08/23 10:33:10;;;;;;;;;0.00;0.00;;;;;27.31;53.02;101401.50;5092757;27;49829;-69
2022/08/23 10:35:56;;;;;;;;;2.50;2.50;;;;;27.21;53.25;101408.16;5092636;27;49962;-70
2022/08/23 10:38:28;;;;;;;;;2.00;2.00;;;;;27.19;53.33;101393.84;5092765;27;49890;-69
2022/08/23 10:41:21;;;;;;;;;4.25;4.25;;;;;27.22;53.43;101392.88;5092812;27;49797;-69
2022/08/23 10:44:22;;;;;;;;;2.75;2.50;;;;;27.23;53.65;101389.25;5092352;27;50422;-69
2022/08/23 10:47:03;;;;;;;;;2.00;2.00;;;;;27.17;53.58;101394.84;5089632;27;49719;-69
2022/08/23 10:49:32;;;;;;;;;2.00;1.00;;;;;27.00;53.34;101371.19;5092563;27;49962;-70
2022/08/23 10:52:00;;;;;;;;;1.50;1.50;;;;;26.84;53.11;101354.75;5092518;27;49732;-70
2022/08/23 10:54:58;;;;;;;;;1.00;1.00;;;;;27.04;53.65;101399.84;5094056;27;52280;-70
2022/08/23 10:57:31;;;;;;;;;2.00;2.00;;;;;27.12;53.77;101395.06;5094106;27;49696;-70
2022/08/23 10:59:58;;;;;;;;;2.75;1.50;;;;;27.03;53.20;101373.84;5092210;27;49700;-70
2022/08/23 11:02:49;;;;;;;;;0.75;0.75;;;;;27.24;53.22;101391.88;5092624;27;49881;-70
2022/08/23 11:05:20;;;;;;;;;2.50;2.50;;;;;27.36;52.54;101388.69;5089225;27;49950;-68
2022/08/23 11:08:02;;;;;;;;;1.00;1.00;;;;;27.53;52.16;101392.56;5091570;27;49793;-69
2022/08/23 11:10:37;;;;;;;;;1.75;1.75;;;;;27.66;51.72;101392.03;5090068;27;49668;-69
2022/08/23 11:13:21;;;;;;;;;1.00;1.00;;;;;27.83;51.28;101391.34;5092213;27;50066;-68
2022/08/23 11:16:11;;;;;;;;;2.00;2.00;;;;;27.82;51.01;101348.25;5091719;27;50431;-68
2022/08/23 11:18:38;;;;;;;;;2.00;2.00;;;;;28.10;50.67;101383.06;5092198;27;49755;-68
2022/08/23 11:21:16;;;;;;;;;0.75;0.75;;;;;28.21;50.53;101381.66;5092048;27;49804;-69
2022/08/23 11:23:49;;;;;;;;;2.00;2.00;;;;;28.30;49.27;101387.63;5092062;27;49695;-68
2022/08/23 11:26:26;;;;;;;;;1.25;1.25;;;;;28.23;49.26;101386.97;5091408;27;50413;-69
2022/08/23 11:29:21;;;;;;;;;0.75;0.75;;;;;28.23;49.59;101385.16;5092240;27;49666;-69
2022/08/23 11:31:57;;;;;;;;;0.00;0.00;;;;;28.32;49.06;101383.03;5085863;27;50184;-69
2022/08/23 11:34:27;;;;;;;;;1.00;1.00;;;;;28.40;48.94;101375.50;5092106;27;49902;-69
2022/08/23 11:37:17;;;;;;;;;0.50;0.50;;;;;28.52;49.39;101374.94;5091677;27;49832;-73
2022/08/23 11:39:57;;;;;;;;;6.75;2.75;;;;;28.62;49.12;101386.22;5091703;27;49887;-69
2022/08/23 11:42:43;;;;;;;;;2.75;1.00;;;;;28.63;48.82;101369.94;5094289;27;49657;-68
2022/08/23 11:45:20;;;;;;;;;3.00;3.00;;;;;28.68;49.08;101377.84;5091026;27;49858;-68
2022/08/23 11:47:49;;;;;;;;;0.75;0.75;;;;;28.59;47.70;101362.94;5090275;27;51052;-68
2022/08/23 11:50:51;;;;;;;;;1.50;1.50;;;;;28.77;48.16;101377.44;5090755;27;49712;-69